Terminal Aerodrome Forecast
Issued by NWS Jacksonville, FL

Current Version | Previous Version | Text Only | Print | Product List | Glossary On
Versions: 1 2 3 4 5 6 7 8 9 10 11 12 13 14 15 16 17 18 19 20
000
FTUS42 KJAX 281100
TAFSSI
TAF
KSSI 281121Z 2812/2912 VRB03KT P6SM SCT035
     FM281500 12008KT P6SM SCT100
     FM290100 16005KT P6SM SCT030=

USA.gov is the U.S. government's official web portal to all federal, state and local government web resources and services.